createdAt,value
2018-07-13T00:02:59.343Z,0
2018-07-13T00:13:10.787Z,0
2018-07-13T00:23:10.878Z,0
2018-07-13T00:33:08.407Z,0
2018-07-13T00:42:59.390Z,0
2018-07-13T00:52:59.328Z,0
2018-07-13T01:02:59.429Z,0
2018-07-13T01:12:59.377Z,0
2018-07-13T01:22:59.474Z,0
2018-07-13T01:32:59.501Z,0
2018-07-13T01:42:59.432Z,0
2018-07-13T01:52:59.516Z,0
2018-07-13T02:02:59.470Z,0
2018-07-13T02:12:59.532Z,0
2018-07-13T02:29:26.619Z,0
2018-07-13T02:32:59.424Z,0
2018-07-13T02:42:59.513Z,0
2018-07-13T02:52:59.466Z,12
2018-07-13T03:02:59.555Z,32
2018-07-13T03:12:59.504Z,88
2018-07-13T03:22:59.600Z,232
2018-07-13T03:32:59.535Z,448
2018-07-13T03:42:59.600Z,760
2018-07-13T03:52:59.628Z,1268
2018-07-13T04:02:59.500Z,1804
2018-07-13T04:12:59.594Z,2364
2018-07-13T04:22:59.642Z,2912
2018-07-13T04:32:59.625Z,4032
2018-07-13T04:42:59.612Z,4936
2018-07-13T04:52:59.677Z,3488
2018-07-13T05:02:59.723Z,4464
2018-07-13T05:12:59.646Z,4876
2018-07-13T05:22:59.681Z,3440
2018-07-13T05:32:59.688Z,3696
2018-07-13T05:42:59.708Z,6328
2018-07-13T05:52:59.739Z,4700
2018-07-13T06:02:59.647Z,5948
2018-07-13T06:12:59.740Z,8748
2018-07-13T06:22:59.717Z,6468
2018-07-13T06:32:59.761Z,8604
2018-07-13T06:42:59.834Z,9196
2018-07-13T06:52:59.774Z,12408
2018-07-13T07:02:59.781Z,7164
2018-07-13T07:12:59.788Z,10084
2018-07-13T07:22:59.840Z,21216
2018-07-13T07:32:59.771Z,24128
2018-07-13T07:42:59.843Z,27488
2018-07-13T07:52:59.847Z,72832
2018-07-13T08:02:59.944Z,75648
2018-07-13T08:13:00.012Z,82816
2018-07-13T08:22:59.816Z,82400
2018-07-13T08:32:59.922Z,76320
2018-07-13T08:42:59.868Z,91136
2018-07-13T08:52:59.961Z,85344
2018-07-13T09:02:59.833Z,93184
2018-07-13T09:13:00.357Z,8128
2018-07-13T09:22:59.890Z,7048
2018-07-13T09:32:59.950Z,6372
2018-07-13T09:43:00.034Z,6228
2018-07-13T09:52:59.964Z,5816
2018-07-13T10:02:59.942Z,5572
2018-07-13T10:12:59.803Z,5500
2018-07-13T10:22:59.876Z,5216
2018-07-13T10:32:59.800Z,5164
2018-07-13T10:42:59.815Z,4940
2018-07-13T10:52:59.806Z,4816
2018-07-13T11:02:59.912Z,4756
2018-07-13T11:12:59.868Z,4672
2018-07-13T11:22:59.996Z,4544
2018-07-13T11:32:59.902Z,4332
2018-07-13T11:42:59.786Z,4280
2018-07-13T11:52:59.856Z,4264
2018-07-13T12:02:59.811Z,4428
2018-07-13T12:12:59.813Z,4328
2018-07-13T12:22:59.816Z,4676
2018-07-13T12:32:59.842Z,4372
2018-07-13T12:42:59.851Z,4580
2018-07-13T12:52:59.872Z,4612
2018-07-13T13:02:59.811Z,5440
2018-07-13T13:12:59.942Z,5252
2018-07-13T13:22:59.947Z,5208
2018-07-13T13:32:59.993Z,6528
2018-07-13T13:42:59.881Z,7016
2018-07-13T13:53:00.817Z,6908
2018-07-13T14:02:59.915Z,10144
2018-07-13T14:12:59.915Z,9424
2018-07-13T14:22:59.847Z,8424
2018-07-13T14:32:59.903Z,7968
2018-07-13T14:42:59.885Z,8444
2018-07-13T14:52:59.952Z,5164
2018-07-13T15:02:59.887Z,5244
2018-07-13T15:12:59.925Z,6076
2018-07-13T15:22:59.951Z,5036
2018-07-13T15:32:59.880Z,5760
2018-07-13T15:42:59.930Z,5624
2018-07-13T15:52:59.882Z,6720
2018-07-13T16:02:59.981Z,4100
2018-07-13T16:12:59.960Z,3596
2018-07-13T16:22:59.966Z,3472
2018-07-13T16:32:59.960Z,2820
2018-07-13T16:42:59.914Z,3320
2018-07-13T16:52:59.963Z,3288
2018-07-13T17:03:00.000Z,3308
2018-07-13T17:12:59.947Z,3236
2018-07-13T17:22:59.931Z,3064
2018-07-13T17:32:59.906Z,3068
2018-07-13T17:43:00.075Z,3080
2018-07-13T17:52:59.911Z,3208
2018-07-13T18:03:00.019Z,2732
2018-07-13T18:13:01.082Z,2272
2018-07-13T18:23:00.227Z,2240
2018-07-13T18:32:59.958Z,2024
2018-07-13T18:42:59.998Z,1732
2018-07-13T18:52:59.951Z,1452
2018-07-13T19:03:00.006Z,1160
2018-07-13T19:13:00.031Z,824
2018-07-13T19:23:00.070Z,544
2018-07-13T19:32:59.994Z,356
2018-07-13T19:43:00.083Z,212
2018-07-13T19:52:59.996Z,100
2018-07-13T20:03:00.128Z,40
2018-07-13T20:12:59.971Z,16
2018-07-13T20:23:00.093Z,4
2018-07-13T20:33:00.180Z,4
2018-07-13T20:43:00.030Z,4
2018-07-13T20:53:00.305Z,0
2018-07-13T21:03:00.521Z,0
2018-07-13T21:13:00.923Z,0
2018-07-13T21:23:00.032Z,0
2018-07-13T21:33:00.044Z,4
2018-07-13T21:43:00.666Z,0
2018-07-13T21:53:00.705Z,0
2018-07-13T22:03:00.132Z,0
2018-07-13T22:13:01.655Z,0
2018-07-13T22:23:00.343Z,0
2018-07-13T22:33:00.124Z,0
2018-07-13T22:42:59.956Z,0
2018-07-13T22:53:00.049Z,0
2018-07-13T23:02:59.989Z,0
2018-07-13T23:12:59.968Z,0
2018-07-13T23:23:00.000Z,0
2018-07-13T23:33:00.014Z,0
2018-07-13T23:43:00.025Z,0
2018-07-13T23:53:00.020Z,0
